sensor_id;sensor_type;location;lat;lon;timestamp;pressure;altitude;pressure_sealevel;temperature;humidity
42761;BME280;31672;47.638;19.026;2023-05-18T00:03:08;100132.03;;;10.98;100.00
42761;BME280;31672;47.638;19.026;2023-05-18T00:08:12;100136.16;;;11.01;100.00
42761;BME280;31672;47.638;19.026;2023-05-18T00:13:15;100136.84;;;10.94;100.00
42761;BME280;31672;47.638;19.026;2023-05-18T00:18:18;100135.53;;;10.90;100.00
42761;BME280;31672;47.638;19.026;2023-05-18T00:23:29;100139.69;;;10.85;100.00
42761;BME280;31672;47.638;19.026;2023-05-18T00:28:33;100144.88;;;10.86;100.00
42761;BME280;31672;47.638;19.026;2023-05-18T00:33:36;100132.91;;;10.82;100.00
42761;BME280;31672;47.638;19.026;2023-05-18T00:38:40;100143.19;;;10.85;100.00
42761;BME280;31672;47.638;19.026;2023-05-18T00:43:43;100145.69;;;10.87;100.00
42761;BME280;31672;47.638;19.026;2023-05-18T00:48:47;100137.56;;;10.80;100.00
42761;BME280;31672;47.638;19.026;2023-05-18T00:53:53;100147.84;;;10.83;100.00
42761;BME280;31672;47.638;19.026;2023-05-18T00:58:57;100150.88;;;10.80;100.00
42761;BME280;31672;47.638;19.026;2023-05-18T01:04:00;100151.84;;;10.79;100.00
42761;BME280;31672;47.638;19.026;2023-05-18T01:09:08;100157.50;;;10.76;100.00
42761;BME280;31672;47.638;19.026;2023-05-18T01:20:16;100174.09;;;10.78;100.00
42761;BME280;31672;47.638;19.026;2023-05-18T01:30:40;100173.63;;;10.75;100.00
42761;BME280;31672;47.638;19.026;2023-05-18T01:35:44;100167.00;;;10.70;100.00
42761;BME280;31672;47.638;19.026;2023-05-18T01:41:23;100181.59;;;10.75;100.00
42761;BME280;31672;47.638;19.026;2023-05-18T01:47:07;100189.59;;;10.75;100.00
42761;BME280;31672;47.638;19.026;2023-05-18T01:57:38;100205.69;;;10.73;100.00
42761;BME280;31672;47.638;19.026;2023-05-18T02:02:44;100194.41;;;10.71;100.00
42761;BME280;31672;47.638;19.026;2023-05-18T02:07:47;100199.19;;;10.67;100.00
42761;BME280;31672;47.638;19.026;2023-05-18T02:12:51;100202.03;;;10.66;100.00
42761;BME280;31672;47.638;19.026;2023-05-18T02:17:55;100200.38;;;10.65;100.00
42761;BME280;31672;47.638;19.026;2023-05-18T02:23:00;100204.22;;;10.62;100.00
42761;BME280;31672;47.638;19.026;2023-05-18T02:28:03;100196.56;;;10.59;100.00
42761;BME280;31672;47.638;19.026;2023-05-18T02:33:06;100217.66;;;10.61;100.00
42761;BME280;31672;47.638;19.026;2023-05-18T02:38:10;100208.03;;;10.60;100.00
42761;BME280;31672;47.638;19.026;2023-05-18T02:43:13;100217.81;;;10.59;100.00
42761;BME280;31672;47.638;19.026;2023-05-18T02:48:17;100206.22;;;10.52;100.00
42761;BME280;31672;47.638;19.026;2023-05-18T02:53:20;100220.31;;;10.53;100.00
42761;BME280;31672;47.638;19.026;2023-05-18T02:58:23;100215.19;;;10.51;100.00
42761;BME280;31672;47.638;19.026;2023-05-18T03:03:27;100203.41;;;10.45;100.00
42761;BME280;31672;47.638;19.026;2023-05-18T03:08:30;100212.50;;;10.43;100.00
42761;BME280;31672;47.638;19.026;2023-05-18T03:13:33;100217.81;;;10.43;100.00
42761;BME280;31672;47.638;19.026;2023-05-18T03:18:36;100219.66;;;10.42;100.00
42761;BME280;31672;47.638;19.026;2023-05-18T03:23:39;100222.31;;;10.42;100.00
42761;BME280;31672;47.638;19.026;2023-05-18T03:28:42;100213.00;;;10.30;100.00
42761;BME280;31672;47.638;19.026;2023-05-18T03:33:45;100225.97;;;10.33;100.00
42761;BME280;31672;47.638;19.026;2023-05-18T03:38:49;100229.78;;;10.31;100.00
42761;BME280;31672;47.638;19.026;2023-05-18T03:43:52;100242.09;;;10.32;100.00
42761;BME280;31672;47.638;19.026;2023-05-18T03:48:55;100243.75;;;10.33;100.00
42761;BME280;31672;47.638;19.026;2023-05-18T03:53:58;100244.22;;;10.36;100.00
42761;BME280;31672;47.638;19.026;2023-05-18T03:59:01;100248.22;;;10.32;100.00
42761;BME280;31672;47.638;19.026;2023-05-18T04:04:05;100250.53;;;10.35;100.00
42761;BME280;31672;47.638;19.026;2023-05-18T04:09:09;100256.69;;;10.36;100.00
42761;BME280;31672;47.638;19.026;2023-05-18T04:14:12;100261.81;;;10.37;100.00
42761;BME280;31672;47.638;19.026;2023-05-18T04:19:16;100262.00;;;10.36;100.00
42761;BME280;31672;47.638;19.026;2023-05-18T04:24:21;100260.50;;;10.33;100.00
42761;BME280;31672;47.638;19.026;2023-05-18T04:29:24;100263.16;;;10.33;100.00
42761;BME280;31672;47.638;19.026;2023-05-18T04:34:28;100274.44;;;10.35;100.00
42761;BME280;31672;47.638;19.026;2023-05-18T04:39:32;100279.59;;;10.37;100.00
42761;BME280;31672;47.638;19.026;2023-05-18T04:44:36;100274.63;;;10.34;100.00
42761;BME280;31672;47.638;19.026;2023-05-18T04:49:40;100274.78;;;10.32;100.00
42761;BME280;31672;47.638;19.026;2023-05-18T04:54:44;100276.94;;;10.37;100.00
42761;BME280;31672;47.638;19.026;2023-05-18T04:59:47;100287.41;;;10.38;100.00
42761;BME280;31672;47.638;19.026;2023-05-18T05:04:50;100294.56;;;10.38;100.00
42761;BME280;31672;47.638;19.026;2023-05-18T05:09:53;100294.56;;;10.38;100.00
42761;BME280;31672;47.638;19.026;2023-05-18T05:14:56;100289.72;;;10.33;100.00
42761;BME280;31672;47.638;19.026;2023-05-18T05:19:59;100301.19;;;10.34;100.00
42761;BME280;31672;47.638;19.026;2023-05-18T05:25:03;100304.31;;;10.37;100.00
42761;BME280;31672;47.638;19.026;2023-05-18T05:30:08;100305.50;;;10.35;100.00
42761;BME280;31672;47.638;19.026;2023-05-18T05:35:11;100313.28;;;10.36;100.00
42761;BME280;31672;47.638;19.026;2023-05-18T05:40:15;100311.63;;;10.35;100.00
42761;BME280;31672;47.638;19.026;2023-05-18T05:45:18;100316.63;;;10.38;100.00
42761;BME280;31672;47.638;19.026;2023-05-18T05:50:21;100317.94;;;10.42;100.00
42761;BME280;31672;47.638;19.026;2023-05-18T05:55:24;100321.28;;;10.44;100.00
42761;BME280;31672;47.638;19.026;2023-05-18T06:00:27;100327.78;;;10.50;100.00
42761;BME280;31672;47.638;19.026;2023-05-18T06:05:31;100326.59;;;10.53;100.00
42761;BME280;31672;47.638;19.026;2023-05-18T06:10:34;100338.72;;;10.55;100.00
42761;BME280;31672;47.638;19.026;2023-05-18T06:15:38;100343.91;;;10.57;100.00
42761;BME280;31672;47.638;19.026;2023-05-18T06:20:41;100344.56;;;10.59;100.00
42761;BME280;31672;47.638;19.026;2023-05-18T06:25:44;100352.53;;;10.67;100.00
42761;BME280;31672;47.638;19.026;2023-05-18T06:30:47;100359.66;;;10.66;100.00
42761;BME280;31672;47.638;19.026;2023-05-18T06:35:50;100359.84;;;10.65;100.00
42761;BME280;31672;47.638;19.026;2023-05-18T06:40:53;100363.16;;;10.67;100.00
42761;BME280;31672;47.638;19.026;2023-05-18T06:45:56;100359.53;;;10.68;100.00
42761;BME280;31672;47.638;19.026;2023-05-18T06:50:59;100377.31;;;10.76;100.00
42761;BME280;31672;47.638;19.026;2023-05-18T06:56:02;100371.50;;;10.80;100.00
42761;BME280;31672;47.638;19.026;2023-05-18T07:01:06;100378.94;;;10.85;100.00
42761;BME280;31672;47.638;19.026;2023-05-18T07:06:10;100378.81;;;10.86;100.00
42761;BME280;31672;47.638;19.026;2023-05-18T07:11:13;100383.47;;;10.92;100.00
42761;BME280;31672;47.638;19.026;2023-05-18T07:16:16;100387.28;;;10.98;100.00
42761;BME280;31672;47.638;19.026;2023-05-18T07:21:19;100384.63;;;10.98;100.00
42761;BME280;31672;47.638;19.026;2023-05-18T07:26:22;100389.78;;;10.99;100.00
42761;BME280;31672;47.638;19.026;2023-05-18T07:31:26;100398.59;;;11.00;100.00
42761;BME280;31672;47.638;19.026;2023-05-18T07:36:29;100407.38;;;11.01;100.00
42761;BME280;31672;47.638;19.026;2023-05-18T07:41:33;100412.22;;;11.05;100.00
42761;BME280;31672;47.638;19.026;2023-05-18T07:46:36;100409.06;;;11.10;100.00
42761;BME280;31672;47.638;19.026;2023-05-18T07:51:39;100415.03;;;11.12;100.00
42761;BME280;31672;47.638;19.026;2023-05-18T07:56:44;100410.19;;;11.15;100.00
42761;BME280;31672;47.638;19.026;2023-05-18T08:01:46;100420.69;;;11.25;100.00
42761;BME280;31672;47.638;19.026;2023-05-18T08:06:50;100418.69;;;11.27;100.00
42761;BME280;31672;47.638;19.026;2023-05-18T08:11:57;100426.69;;;11.35;100.00
42761;BME280;31672;47.638;19.026;2023-05-18T08:17:02;100425.03;;;11.34;100.00
42761;BME280;31672;47.638;19.026;2023-05-18T08:22:05;100426.69;;;11.35;100.00
42761;BME280;31672;47.638;19.026;2023-05-18T08:27:08;100431.34;;;11.41;100.00
42761;BME280;31672;47.638;19.026;2023-05-18T08:32:13;100430.66;;;11.47;100.00
42761;BME280;31672;47.638;19.026;2023-05-18T08:37:16;100430.31;;;11.50;100.00
42761;BME280;31672;47.638;19.026;2023-05-18T08:42:37;100430.16;;;11.44;100.00
42761;BME280;31672;47.638;19.026;2023-05-18T08:47:55;100430.47;;;11.57;100.00
42761;BME280;31672;47.638;19.026;2023-05-18T08:53:05;100431.47;;;11.64;100.00
42761;BME280;31672;47.638;19.026;2023-05-18T08:58:08;100422.81;;;11.70;100.00
42761;BME280;31672;47.638;19.026;2023-05-18T09:03:14;100425.94;;;11.74;100.00
42761;BME280;31672;47.638;19.026;2023-05-18T09:08:18;100422.59;;;11.80;100.00
42761;BME280;31672;47.638;19.026;2023-05-18T09:13:29;100408.00;;;11.84;100.00
42761;BME280;31672;47.638;19.026;2023-05-18T09:18:33;100407.94;;;12.00;100.00
42761;BME280;31672;47.638;19.026;2023-05-18T09:23:38;100416.88;;;12.16;100.00
42761;BME280;31672;47.638;19.026;2023-05-18T09:28:43;100415.16;;;12.23;100.00
42761;BME280;31672;47.638;19.026;2023-05-18T09:33:50;100431.97;;;12.31;100.00
42761;BME280;31672;47.638;19.026;2023-05-18T09:38:54;100426.44;;;12.33;100.00
42761;BME280;31672;47.638;19.026;2023-05-18T09:43:57;100432.13;;;12.30;100.00
42761;BME280;31672;47.638;19.026;2023-05-18T09:49:03;100439.94;;;12.31;100.00
42761;BME280;31672;47.638;19.026;2023-05-18T09:54:07;100444.47;;;12.31;100.00
42761;BME280;31672;47.638;19.026;2023-05-18T09:59:14;100443.13;;;12.27;100.00
42761;BME280;31672;47.638;19.026;2023-05-18T10:04:19;100437.28;;;12.31;100.00
42761;BME280;31672;47.638;19.026;2023-05-18T10:09:22;100433.44;;;12.34;100.00
42761;BME280;31672;47.638;19.026;2023-05-18T10:14:25;100434.75;;;12.38;100.00
42761;BME280;31672;47.638;19.026;2023-05-18T10:19:36;100428.25;;;12.41;100.00
42761;BME280;31672;47.638;19.026;2023-05-18T10:24:48;100436.41;;;12.39;100.00
42761;BME280;31672;47.638;19.026;2023-05-18T10:29:53;100438.75;;;12.42;100.00
42761;BME280;31672;47.638;19.026;2023-05-18T10:34:59;100432.34;;;12.51;100.00
42761;BME280;31672;47.638;19.026;2023-05-18T10:40:03;100434.31;;;12.57;100.00
42761;BME280;31672;47.638;19.026;2023-05-18T10:45:09;100432.97;;;12.62;100.00
42761;BME280;31672;47.638;19.026;2023-05-18T10:50:14;100439.38;;;12.75;100.00
42761;BME280;31672;47.638;19.026;2023-05-18T10:55:19;100433.88;;;12.77;100.00
42761;BME280;31672;47.638;19.026;2023-05-18T11:00:22;100426.84;;;12.84;100.00
42761;BME280;31672;47.638;19.026;2023-05-18T11:05:26;100432.81;;;12.86;100.00
42761;BME280;31672;47.638;19.026;2023-05-18T11:10:42;100436.63;;;12.92;100.00
42761;BME280;31672;47.638;19.026;2023-05-18T11:26:28;100442.41;;;12.95;100.00
42761;BME280;31672;47.638;19.026;2023-05-18T11:31:45;100441.97;;;12.92;100.00
42761;BME280;31672;47.638;19.026;2023-05-18T11:36:54;100449.59;;;12.95;100.00
42761;BME280;31672;47.638;19.026;2023-05-18T11:42:01;100448.75;;;12.94;100.00
42761;BME280;31672;47.638;19.026;2023-05-18T11:47:09;100453.09;;;12.95;100.00
42761;BME280;31672;47.638;19.026;2023-05-18T11:52:22;100457.38;;;13.04;100.00
42761;BME280;31672;47.638;19.026;2023-05-18T12:02:36;100462.38;;;13.07;100.00
42761;BME280;31672;47.638;19.026;2023-05-18T12:07:40;100451.22;;;13.04;100.00
42761;BME280;31672;47.638;19.026;2023-05-18T12:12:49;100467.97;;;13.12;100.00
42761;BME280;31672;47.638;19.026;2023-05-18T12:17:53;100457.66;;;13.09;100.00
42761;BME280;31672;47.638;19.026;2023-05-18T12:22:57;100460.34;;;13.09;100.00
42761;BME280;31672;47.638;19.026;2023-05-18T12:28:00;100471.78;;;13.18;100.00
42761;BME280;31672;47.638;19.026;2023-05-18T12:33:03;100464.59;;;13.19;100.00
42761;BME280;31672;47.638;19.026;2023-05-18T12:38:08;100457.41;;;13.19;100.00
42761;BME280;31672;47.638;19.026;2023-05-18T12:43:11;100457.94;;;13.23;100.00
42761;BME280;31672;47.638;19.026;2023-05-18T12:48:14;100457.41;;;13.27;100.00
42761;BME280;31672;47.638;19.026;2023-05-18T12:53:18;100458.34;;;13.34;100.00
42761;BME280;31672;47.638;19.026;2023-05-18T12:58:21;100452.81;;;13.36;100.00
42761;BME280;31672;47.638;19.026;2023-05-18T13:03:24;100448.97;;;13.38;100.00
42761;BME280;31672;47.638;19.026;2023-05-18T13:08:27;100465.09;;;13.45;100.00
42761;BME280;31672;47.638;19.026;2023-05-18T13:13:31;100456.41;;;13.43;100.00
42761;BME280;31672;47.638;19.026;2023-05-18T13:18:34;100462.06;;;13.48;100.00
42761;BME280;31672;47.638;19.026;2023-05-18T13:23:37;100460.41;;;13.47;100.00
42761;BME280;31672;47.638;19.026;2023-05-18T13:28:41;100458.56;;;13.48;100.00
42761;BME280;31672;47.638;19.026;2023-05-18T13:33:45;100453.31;;;13.54;100.00
42761;BME280;31672;47.638;19.026;2023-05-18T13:38:48;100462.28;;;13.61;100.00
42761;BME280;31672;47.638;19.026;2023-05-18T13:43:51;100461.81;;;13.58;100.00
42761;BME280;31672;47.638;19.026;2023-05-18T13:48:55;100462.44;;;13.60;100.00
42761;BME280;31672;47.638;19.026;2023-05-18T13:53:58;100456.94;;;13.61;100.00
42761;BME280;31672;47.638;19.026;2023-05-18T13:59:01;100460.31;;;13.55;100.00
42761;BME280;31672;47.638;19.026;2023-05-18T14:04:05;100462.72;;;13.50;100.00
42761;BME280;31672;47.638;19.026;2023-05-18T14:09:08;100466.28;;;13.43;100.00
42761;BME280;31672;47.638;19.026;2023-05-18T14:14:11;100470.13;;;13.40;100.00
42761;BME280;31672;47.638;19.026;2023-05-18T14:19:14;100480.19;;;13.38;100.00
42761;BME280;31672;47.638;19.026;2023-05-18T14:24:17;100476.84;;;13.36;100.00
42761;BME280;31672;47.638;19.026;2023-05-18T14:29:21;100480.91;;;13.32;100.00
42761;BME280;31672;47.638;19.026;2023-05-18T14:34:24;100479.22;;;13.31;100.00
42761;BME280;31672;47.638;19.026;2023-05-18T14:39:28;100476.28;;;13.26;100.00
42761;BME280;31672;47.638;19.026;2023-05-18T14:44:31;100485.94;;;13.27;100.00
42761;BME280;31672;47.638;19.026;2023-05-18T14:49:34;100484.97;;;13.20;100.00
42761;BME280;31672;47.638;19.026;2023-05-18T14:54:37;100487.47;;;13.21;100.00
42761;BME280;31672;47.638;19.026;2023-05-18T14:59:41;100490.34;;;13.11;100.00
42761;BME280;31672;47.638;19.026;2023-05-18T15:04:45;100484.81;;;13.13;100.00
42761;BME280;31672;47.638;19.026;2023-05-18T15:09:48;100478.75;;;13.19;100.00
42761;BME280;31672;47.638;19.026;2023-05-18T15:14:51;100485.25;;;13.25;100.00
42761;BME280;31672;47.638;19.026;2023-05-18T15:19:54;100489.53;;;13.34;100.00
42761;BME280;31672;47.638;19.026;2023-05-18T15:24:58;100488.22;;;13.30;100.00
42761;BME280;31672;47.638;19.026;2023-05-18T15:30:04;100495.59;;;13.28;100.00
42761;BME280;31672;47.638;19.026;2023-05-18T15:35:13;100492.97;;;13.20;100.00
42761;BME280;31672;47.638;19.026;2023-05-18T15:40:18;100501.69;;;13.13;100.00
42761;BME280;31672;47.638;19.026;2023-05-18T15:45:21;100491.72;;;13.07;100.00
42761;BME280;31672;47.638;19.026;2023-05-18T15:50:26;100490.03;;;13.06;100.00
42761;BME280;31672;47.638;19.026;2023-05-18T15:55:30;100499.72;;;13.07;100.00
42761;BME280;31672;47.638;19.026;2023-05-18T16:00:33;100491.03;;;13.05;100.00
42761;BME280;31672;47.638;19.026;2023-05-18T16:05:36;100498.41;;;13.03;100.00
42761;BME280;31672;47.638;19.026;2023-05-18T16:10:40;100503.75;;;13.03;100.00
42761;BME280;31672;47.638;19.026;2023-05-18T16:15:43;100499.88;;;13.06;100.00
42761;BME280;31672;47.638;19.026;2023-05-18T16:20:46;100498.34;;;13.11;100.00
42761;BME280;31672;47.638;19.026;2023-05-18T16:25:49;100497.81;;;13.16;100.00
42761;BME280;31672;47.638;19.026;2023-05-18T16:30:52;100495.94;;;13.25;100.00
42761;BME280;31672;47.638;19.026;2023-05-18T16:35:55;100500.75;;;13.29;100.00
42761;BME280;31672;47.638;19.026;2023-05-18T16:41:04;100505.19;;;13.37;100.00
42761;BME280;31672;47.638;19.026;2023-05-18T16:46:07;100503.38;;;13.37;100.00
42761;BME280;31672;47.638;19.026;2023-05-18T16:51:10;100503.38;;;13.37;100.00
42761;BME280;31672;47.638;19.026;2023-05-18T16:56:14;100509.53;;;13.38;100.00
42761;BME280;31672;47.638;19.026;2023-05-18T17:01:18;100508.22;;;13.34;100.00
42761;BME280;31672;47.638;19.026;2023-05-18T17:06:28;100507.59;;;13.32;100.00
42761;BME280;31672;47.638;19.026;2023-05-18T17:11:31;100517.78;;;13.28;100.00
42761;BME280;31672;47.638;19.026;2023-05-18T17:16:34;100515.63;;;13.24;100.00
42761;BME280;31672;47.638;19.026;2023-05-18T17:21:42;100516.50;;;13.16;100.00
42761;BME280;31672;47.638;19.026;2023-05-18T17:26:45;100521.34;;;13.12;100.00
42761;BME280;31672;47.638;19.026;2023-05-18T17:31:48;100526.56;;;13.06;100.00
42761;BME280;31672;47.638;19.026;2023-05-18T17:36:51;100520.38;;;13.05;100.00
42761;BME280;31672;47.638;19.026;2023-05-18T17:41:55;100521.09;;;12.99;100.00
42761;BME280;31672;47.638;19.026;2023-05-18T17:46:59;100517.78;;;12.97;100.00
42761;BME280;31672;47.638;19.026;2023-05-18T17:52:04;100538.44;;;12.95;100.00
42761;BME280;31672;47.638;19.026;2023-05-18T17:57:07;100533.09;;;12.95;100.00
42761;BME280;31672;47.638;19.026;2023-05-18T18:02:10;100535.13;;;12.93;100.00
42761;BME280;31672;47.638;19.026;2023-05-18T18:07:15;100527.66;;;12.89;100.00
42761;BME280;31672;47.638;19.026;2023-05-18T18:12:19;100521.66;;;12.86;100.00
42761;BME280;31672;47.638;19.026;2023-05-18T18:17:23;100528.19;;;12.84;100.00
42761;BME280;31672;47.638;19.026;2023-05-18T18:22:26;100528.84;;;12.86;100.00
42761;BME280;31672;47.638;19.026;2023-05-18T18:27:29;100526.69;;;12.81;100.00
42761;BME280;31672;47.638;19.026;2023-05-18T18:32:32;100541.84;;;12.81;100.00
42761;BME280;31672;47.638;19.026;2023-05-18T18:37:35;100540.19;;;12.80;100.00
42761;BME280;31672;47.638;19.026;2023-05-18T18:42:38;100551.88;;;12.79;100.00
42761;BME280;31672;47.638;19.026;2023-05-18T18:47:41;100561.88;;;12.77;100.00
42761;BME280;31672;47.638;19.026;2023-05-18T18:52:44;100566.88;;;12.80;100.00
42761;BME280;31672;47.638;19.026;2023-05-18T18:57:47;100569.34;;;12.81;100.00
42761;BME280;31672;47.638;19.026;2023-05-18T19:02:50;100567.69;;;12.80;100.00
42761;BME280;31672;47.638;19.026;2023-05-18T19:07:55;100574.69;;;12.81;100.00
42761;BME280;31672;47.638;19.026;2023-05-18T19:12:58;100575.06;;;12.78;100.00
42761;BME280;31672;47.638;19.026;2023-05-18T19:18:02;100575.06;;;12.78;100.00
42761;BME280;31672;47.638;19.026;2023-05-18T19:23:06;100590.69;;;12.81;100.00
42761;BME280;31672;47.638;19.026;2023-05-18T19:28:09;100590.56;;;12.75;100.00
42761;BME280;31672;47.638;19.026;2023-05-18T19:33:15;100602.56;;;12.79;100.00
42761;BME280;31672;47.638;19.026;2023-05-18T19:38:18;100606.22;;;12.78;100.00
42761;BME280;31672;47.638;19.026;2023-05-18T19:43:21;100615.19;;;12.77;100.00
42761;BME280;31672;47.638;19.026;2023-05-18T19:48:24;100619.56;;;12.78;100.00
42761;BME280;31672;47.638;19.026;2023-05-18T19:53:29;100625.53;;;12.80;100.00
42761;BME280;31672;47.638;19.026;2023-05-18T19:58:32;100637.69;;;12.82;100.00
42761;BME280;31672;47.638;19.026;2023-05-18T20:03:36;100635.38;;;12.79;100.00
42761;BME280;31672;47.638;19.026;2023-05-18T20:08:44;100644.84;;;12.82;100.00
42761;BME280;31672;47.638;19.026;2023-05-18T20:13:47;100643.19;;;12.81;100.00
42761;BME280;31672;47.638;19.026;2023-05-18T20:18:49;100650.38;;;12.80;100.00
42761;BME280;31672;47.638;19.026;2023-05-18T20:23:53;100647.06;;;12.78;100.00
42761;BME280;31672;47.638;19.026;2023-05-18T20:28:56;100654.69;;;12.81;100.00
42761;BME280;31672;47.638;19.026;2023-05-18T20:33:59;100648.91;;;12.78;100.00
42761;BME280;31672;47.638;19.026;2023-05-18T20:39:02;100662.22;;;12.78;100.00
42761;BME280;31672;47.638;19.026;2023-05-18T20:44:06;100661.53;;;12.76;100.00
42761;BME280;31672;47.638;19.026;2023-05-18T20:49:13;100662.72;;;12.73;100.00
42761;BME280;31672;47.638;19.026;2023-05-18T20:54:17;100662.72;;;12.73;100.00
42761;BME280;31672;47.638;19.026;2023-05-18T20:59:20;100663.75;;;12.72;100.00
42761;BME280;31672;47.638;19.026;2023-05-18T21:04:23;100665.72;;;12.70;100.00
42761;BME280;31672;47.638;19.026;2023-05-18T21:09:26;100666.72;;;12.69;100.00
42761;BME280;31672;47.638;19.026;2023-05-18T21:14:30;100668.25;;;12.72;100.00
42761;BME280;31672;47.638;19.026;2023-05-18T21:19:33;100671.06;;;12.70;100.00
42761;BME280;31672;47.638;19.026;2023-05-18T21:24:36;100674.41;;;12.72;100.00
42761;BME280;31672;47.638;19.026;2023-05-18T21:29:39;100677.91;;;12.73;100.00
42761;BME280;31672;47.638;19.026;2023-05-18T21:34:42;100671.88;;;12.71;100.00
42761;BME280;31672;47.638;19.026;2023-05-18T21:39:45;100678.56;;;12.75;100.00
42761;BME280;31672;47.638;19.026;2023-05-18T21:44:48;100684.06;;;12.73;100.00
42761;BME280;31672;47.638;19.026;2023-05-18T21:49:51;100685.41;;;12.69;100.00
42761;BME280;31672;47.638;19.026;2023-05-18T21:54:55;100694.22;;;12.70;100.00
42761;BME280;31672;47.638;19.026;2023-05-18T21:59:58;100695.88;;;12.71;100.00
42761;BME280;31672;47.638;19.026;2023-05-18T22:05:01;100693.75;;;12.66;100.00
42761;BME280;31672;47.638;19.026;2023-05-18T22:10:04;100693.41;;;12.69;100.00
42761;BME280;31672;47.638;19.026;2023-05-18T22:15:10;100694.22;;;12.70;100.00
42761;BME280;31672;47.638;19.026;2023-05-18T22:20:13;100692.56;;;12.69;100.00
42761;BME280;31672;47.638;19.026;2023-05-18T22:25:16;100696.06;;;12.69;100.00
42761;BME280;31672;47.638;19.026;2023-05-18T22:30:20;100705.56;;;12.72;100.00
42761;BME280;31672;47.638;19.026;2023-05-18T22:35:25;100703.22;;;12.69;100.00
42761;BME280;31672;47.638;19.026;2023-05-18T22:40:28;100711.22;;;12.69;100.00
42761;BME280;31672;47.638;19.026;2023-05-18T22:45:32;100701.06;;;12.64;100.00
42761;BME280;31672;47.638;19.026;2023-05-18T22:50:35;100685.25;;;12.63;100.00
42761;BME280;31672;47.638;19.026;2023-05-18T22:55:38;100688.25;;;12.59;100.00
42761;BME280;31672;47.638;19.026;2023-05-18T23:00:41;100690.94;;;12.59;100.00
42761;BME280;31672;47.638;19.026;2023-05-18T23:05:45;100686.75;;;12.57;100.00
42761;BME280;31672;47.638;19.026;2023-05-18T23:10:50;100685.28;;;12.54;100.00
42761;BME280;31672;47.638;19.026;2023-05-18T23:15:53;100684.09;;;12.57;100.00
42761;BME280;31672;47.638;19.026;2023-05-18T23:20:57;100679.94;;;12.54;100.00
42761;BME280;31672;47.638;19.026;2023-05-18T23:26:01;100676.25;;;12.55;100.00
42761;BME280;31672;47.638;19.026;2023-05-18T23:31:03;100680.75;;;12.55;100.00
42761;BME280;31672;47.638;19.026;2023-05-18T23:36:07;100683.75;;;12.52;100.00
42761;BME280;31672;47.638;19.026;2023-05-18T23:41:11;100675.28;;;12.48;100.00
42761;BME280;31672;47.638;19.026;2023-05-18T23:46:15;100682.59;;;12.46;100.00
42761;BME280;31672;47.638;19.026;2023-05-18T23:51:19;100679.59;;;12.41;100.00
42761;BME280;31672;47.638;19.026;2023-05-18T23:56:24;100686.44;;;12.44;100.00
